Startpagina
METAR-TAF:

METAR-TAF

Vliegvelden :

Malé International Airport

Malé, Maldiven

breedte: 04-12N, lengte: 073-32E, hoogte: 2 m

Actueel weer

Dit bericht is 27 minuten geleden gemaakt, om 02:00 UTC
Wind 9 kt uit het zuidzuidwesten
Temperatuur 29°C
Vochtigheid 79%
Druk 1011 hPa
Zicht 10 km of meer
Weinig wolken op 1700 ft
Weinig wolken op 1800 ft, Cumulonimbus.
Geheel bewolkt op 11000 ft

METAR: VRMM 260200Z 21009KT 9999 FEW017 FEW018CB OVC110 29/25 Q1011 CB N,SE NOSIG

Tijdstip: 07:27 (02:27 UTC)

Verwachting

Dit bericht is 3 uur en het 27 minuten geleden gemaakt, om 23:00 UTC
Verwachting geldig van 26 om 00 UTC tot 27 om 06 UTC
Wind 9 kt uit het westzuidwesten
Zicht 10 km of meer
Verspreide wolken op 1700 ft, Stapelwolken.
Verspreide wolken op 10000 ft
Tijdelijke
van 26 om 00 UTC tot 26 om 06 UTC
Zicht: 4000 m
Verspreide wolken op 1700 ft, Cumulonimbus.
Verspreide wolken op 10000 ft
onweer, regen

TAF: VRMM 252300Z 2600/2706 25009KT 9999 SCT017TCU SCT100 TEMPO 2600/2606 4000 TSRA SCT017CB SCT100

Waarnemingen en weersverwachtingen van meer dan 4000 vliegvelden (METAR en TAF).

De beschikbare stations zijn de gele en rode punten op de kaart.

Ga met uw muis naar het station om de naam te zien.

Klik dan om waarnemingen en weersverwachtingen te zien.

kaart wijzigen: klik op de groene knoppen met een zwart kruis om in te zoomen, op de groene knop met een streepje om uit te zoomen of op de groene pijlen voor aangrenzende kaarten.


METAR-TAF: